createdAt,value
2016-12-07T00:01:00.248Z,86.74
2016-12-07T00:02:00.914Z,86.74
2016-12-07T00:03:01.713Z,86.27
2016-12-07T00:04:02.344Z,86.55
2016-12-07T00:05:03.083Z,86.74
2016-12-07T00:06:03.744Z,86.74
2016-12-07T00:07:04.463Z,87.02
2016-12-07T00:08:05.103Z,86.74
2016-12-07T00:09:05.734Z,86.83
2016-12-07T00:10:06.374Z,86.93
2016-12-07T00:11:07.021Z,87.02
2016-12-07T00:12:07.700Z,86.83
2016-12-07T00:13:08.393Z,87.12
2016-12-07T00:14:09.032Z,87.12
2016-12-07T00:15:09.721Z,86.74
2016-12-07T00:16:10.420Z,87.02
2016-12-07T00:17:11.010Z,87.5
2016-12-07T00:18:11.662Z,87.5
2016-12-07T00:19:12.376Z,87.5
2016-12-07T00:20:13.009Z,87.5
2016-12-07T00:21:14.376Z,87.5
2016-12-07T00:22:15.021Z,87.02
2016-12-07T00:23:15.751Z,86.93
2016-12-07T00:24:16.483Z,87.31
2016-12-07T00:25:17.124Z,87.4
2016-12-07T00:26:17.891Z,87.21
2016-12-07T00:27:18.544Z,87.4
2016-12-07T00:28:19.193Z,87.4
2016-12-07T00:29:19.856Z,87.31
2016-12-07T00:30:20.528Z,87.59
2016-12-07T00:31:21.178Z,87.4
2016-12-07T00:32:21.843Z,87.98
2016-12-07T00:33:22.485Z,87.5
2016-12-07T00:34:23.236Z,88.07
2016-12-07T00:35:23.810Z,87.78
2016-12-07T00:36:24.478Z,87.88
2016-12-07T00:37:25.118Z,87.88
2016-12-07T00:38:25.755Z,87.98
2016-12-07T00:39:26.397Z,87.5
2016-12-07T00:40:27.082Z,87.78
2016-12-07T00:41:27.758Z,88.35
2016-12-07T00:42:28.438Z,88.26
2016-12-07T00:43:29.079Z,88.26
2016-12-07T00:44:29.766Z,88.35
2016-12-07T00:45:30.389Z,88.92
2016-12-07T00:46:31.023Z,88.35
2016-12-07T00:47:31.663Z,88.82
2016-12-07T00:48:32.331Z,88.73
2016-12-07T00:49:32.986Z,88.64
2016-12-07T00:50:33.643Z,88.64
2016-12-07T00:51:34.281Z,88.54
2016-12-07T00:52:34.952Z,89.11
2016-12-07T00:53:35.591Z,88.64
2016-12-07T00:54:36.227Z,88.73
2016-12-07T00:55:36.889Z,88.73
2016-12-07T00:56:37.566Z,88.73
2016-12-07T00:57:38.189Z,89.01
2016-12-07T00:58:38.818Z,88.73
2016-12-07T00:59:39.489Z,88.82
2016-12-07T01:00:40.120Z,88.64
2016-12-07T01:01:40.814Z,88.73
2016-12-07T01:02:41.512Z,88.82
2016-12-07T01:03:42.224Z,88.73
2016-12-07T01:04:42.902Z,88.92
2016-12-07T01:05:43.626Z,89.01
2016-12-07T01:06:44.238Z,88.92
2016-12-07T01:07:44.886Z,88.73
2016-12-07T01:08:45.545Z,89.01
2016-12-07T01:09:46.200Z,89.01
2016-12-07T01:10:46.844Z,89.01
2016-12-07T01:11:47.489Z,88.64
2016-12-07T01:12:48.207Z,88.82
2016-12-07T01:13:48.850Z,88.73
2016-12-07T01:14:49.484Z,89.01
2016-12-07T01:15:50.159Z,88.54
2016-12-07T01:16:50.857Z,88.73
2016-12-07T01:17:51.510Z,88.45
2016-12-07T01:18:52.198Z,88.54
2016-12-07T01:19:52.862Z,88.64
2016-12-07T01:20:53.501Z,88.82
2016-12-07T01:21:54.176Z,88.73
2016-12-07T01:22:54.869Z,88.64
2016-12-07T01:23:55.755Z,88.92
2016-12-07T01:24:56.264Z,88.54
2016-12-07T01:25:56.906Z,88.82
2016-12-07T01:26:57.586Z,88.82
2016-12-07T01:27:58.306Z,88.45
2016-12-07T01:28:58.908Z,88.73
2016-12-07T01:29:59.518Z,89.01
2016-12-07T01:31:00.204Z,88.54
2016-12-07T01:32:00.895Z,88.45
2016-12-07T01:33:01.547Z,88.26
2016-12-07T01:34:02.172Z,88.73
2016-12-07T01:35:02.831Z,88.35
2016-12-07T01:36:03.483Z,88.17
2016-12-07T01:37:04.181Z,89.01
2016-12-07T01:38:04.821Z,88.73
2016-12-07T01:39:05.531Z,88.35
2016-12-07T01:40:06.337Z,88.92
2016-12-07T01:41:06.986Z,88.73
2016-12-07T01:42:07.657Z,88.26
2016-12-07T01:43:08.548Z,88.26
2016-12-07T01:44:09.197Z,88.35
2016-12-07T01:45:09.847Z,88.54
2016-12-07T01:46:10.488Z,88.64
2016-12-07T01:47:11.130Z,88.17
2016-12-07T01:48:11.817Z,88.17
2016-12-07T01:49:12.459Z,88.26
2016-12-07T01:50:13.381Z,87.88
2016-12-07T01:51:14.080Z,88.07
2016-12-07T01:52:14.740Z,87.88
2016-12-07T01:53:15.543Z,88.26
2016-12-07T01:54:16.212Z,88.26
2016-12-07T01:55:16.859Z,87.88
2016-12-07T01:56:17.487Z,87.88
2016-12-07T01:57:18.359Z,88.07
2016-12-07T01:58:18.983Z,88.26
2016-12-07T01:59:19.674Z,88.17
2016-12-07T02:00:20.364Z,88.26
2016-12-07T02:01:21.074Z,88.54
2016-12-07T02:02:21.735Z,88.92
2016-12-07T02:03:22.378Z,89.01
2016-12-07T02:04:23.102Z,88.45
2016-12-07T02:05:23.971Z,87.78
2016-12-07T02:06:24.497Z,88.26
2016-12-07T02:07:25.168Z,88.26
2016-12-07T02:08:25.844Z,88.26
2016-12-07T02:09:26.490Z,88.26
2016-12-07T02:10:27.120Z,88.73
2016-12-07T02:11:27.813Z,88.26
2016-12-07T02:12:28.427Z,88.54
2016-12-07T02:13:29.132Z,88.82
2016-12-07T02:14:29.786Z,88.35
2016-12-07T02:15:30.480Z,88.82
2016-12-07T02:16:31.147Z,88.73
2016-12-07T02:17:31.777Z,88.73
2016-12-07T02:18:32.449Z,88.73
2016-12-07T02:19:33.219Z,88.73
2016-12-07T02:20:33.822Z,88.73
2016-12-07T02:21:34.612Z,88.73
2016-12-07T02:22:35.474Z,88.64
2016-12-07T02:23:36.117Z,88.64
2016-12-07T02:24:36.748Z,88.73
2016-12-07T02:25:37.387Z,88.82
2016-12-07T02:26:38.061Z,88.92
2016-12-07T02:27:38.724Z,88.73
2016-12-07T02:28:39.379Z,88.73
2016-12-07T02:29:40.006Z,88.92
2016-12-07T02:30:40.648Z,89.11
2016-12-07T02:31:41.280Z,88.92
2016-12-07T02:32:41.976Z,88.92
2016-12-07T02:33:42.665Z,89.11
2016-12-07T02:34:43.299Z,88.78
2016-12-07T02:35:44.028Z,89.16
2016-12-07T02:36:44.710Z,88.92
2016-12-07T02:37:45.373Z,88.78
2016-12-07T02:38:46.010Z,89.06
2016-12-07T02:39:46.667Z,89.06
2016-12-07T02:40:47.358Z,89.35
2016-12-07T02:41:48.033Z,88.68
2016-12-07T02:42:48.701Z,89.06
2016-12-07T02:43:49.388Z,89.35
2016-12-07T02:44:50.038Z,89.92
2016-12-07T02:45:50.719Z,89.73
2016-12-07T02:46:51.358Z,89.77
2016-12-07T02:47:52.037Z,89.82
2016-12-07T02:48:52.667Z,89.63
2016-12-07T02:49:53.360Z,89.54
2016-12-07T02:50:53.987Z,89.44
2016-12-07T02:51:54.621Z,89.54
2016-12-07T02:52:55.294Z,89.54
2016-12-07T02:53:56.039Z,89.54
2016-12-07T02:54:57.003Z,89.82
2016-12-07T02:55:57.636Z,89.73
2016-12-07T02:56:58.269Z,90.11
2016-12-07T02:57:58.958Z,90.01
2016-12-07T02:58:59.770Z,89.82
2016-12-07T03:00:00.402Z,90.01
2016-12-07T03:01:01.089Z,89.92
2016-12-07T03:02:01.762Z,89.92
2016-12-07T03:03:02.437Z,90.3
2016-12-07T03:04:03.096Z,90.67
2016-12-07T03:05:03.774Z,90.2
2016-12-07T03:06:04.443Z,91.05
2016-12-07T03:07:05.110Z,90.11
2016-12-07T03:08:05.759Z,90.2
2016-12-07T03:09:06.439Z,90.39
2016-12-07T03:10:07.155Z,90.11
2016-12-07T03:11:07.783Z,90.2
2016-12-07T03:12:08.391Z,90.3
2016-12-07T03:13:09.004Z,90.11
2016-12-07T03:14:09.625Z,90.77
2016-12-07T03:15:10.288Z,90.86
2016-12-07T03:16:11.070Z,90.96
2016-12-07T03:17:11.804Z,90.77
2016-12-07T03:18:12.460Z,90.86
2016-12-07T03:19:13.104Z,90.96
2016-12-07T03:20:13.747Z,90.86
2016-12-07T03:21:14.378Z,90.86
2016-12-07T03:22:15.107Z,90.67
2016-12-07T03:23:15.814Z,90.67
2016-12-07T03:24:16.496Z,90.96
2016-12-07T03:25:17.230Z,90.96
2016-12-07T03:26:17.848Z,90.58
2016-12-07T03:27:18.524Z,90.86
2016-12-07T03:28:19.209Z,90.96
2016-12-07T03:29:19.873Z,91.05
2016-12-07T03:30:20.536Z,91.34
2016-12-07T03:31:21.184Z,91.24
2016-12-07T03:32:21.827Z,91.05
2016-12-07T03:33:22.462Z,91.24
2016-12-07T03:34:23.182Z,90.96
2016-12-07T03:35:23.795Z,91.34
2016-12-07T03:36:24.453Z,91.34
2016-12-07T03:37:25.183Z,91.62
2016-12-07T03:38:25.760Z,91.43
2016-12-07T03:39:26.400Z,91.34
2016-12-07T03:40:27.084Z,91.34
2016-12-07T03:41:27.727Z,91.34
2016-12-07T03:42:28.390Z,91.34
2016-12-07T03:43:29.050Z,91.62
2016-12-07T03:44:29.702Z,91.91
2016-12-07T03:45:30.394Z,92.47
2016-12-07T03:46:30.994Z,92.29
2016-12-07T03:47:31.665Z,92.1
2016-12-07T03:48:32.295Z,92.38
2016-12-07T03:49:32.983Z,92.76
2016-12-07T03:50:33.571Z,92.38
2016-12-07T03:51:34.272Z,92.38
2016-12-07T03:52:34.880Z,92.1
2016-12-07T03:53:35.540Z,92.66
2016-12-07T03:54:36.198Z,92.76
2016-12-07T03:55:36.840Z,92.19
2016-12-07T03:56:37.529Z,92.19
2016-12-07T03:57:38.154Z,92.38
2016-12-07T03:58:38.823Z,92.38
2016-12-07T03:59:39.554Z,92.38
2016-12-07T04:00:40.163Z,92.29
2016-12-07T04:01:40.887Z,92.38
2016-12-07T04:02:41.510Z,92.29
2016-12-07T04:03:42.231Z,92.19
2016-12-07T04:04:42.883Z,92.29
2016-12-07T04:05:43.579Z,92.1
2016-12-07T04:06:44.240Z,92.47
2016-12-07T04:07:44.861Z,92.1
2016-12-07T04:08:45.501Z,92.19
2016-12-07T04:09:46.230Z,92.38
2016-12-07T04:10:46.810Z,92.47
2016-12-07T04:11:47.440Z,92.38
2016-12-07T04:12:48.096Z,92.29
2016-12-07T04:13:48.750Z,92.47
2016-12-07T04:14:49.463Z,92.47
2016-12-07T04:15:50.092Z,92.19
2016-12-07T04:16:50.781Z,92.19
2016-12-07T04:17:51.432Z,92.76
2016-12-07T04:18:52.062Z,91.91
2016-12-07T04:19:52.720Z,91.91
2016-12-07T04:20:53.399Z,92.1
2016-12-07T04:21:54.027Z,92.29
2016-12-07T04:22:54.659Z,92.38
2016-12-07T04:23:55.336Z,92.33
2016-12-07T04:24:55.974Z,92.33
2016-12-07T04:25:56.600Z,92.38
2016-12-07T04:26:57.230Z,92.99
2016-12-07T04:27:57.896Z,92.33
2016-12-07T04:28:58.546Z,92.43
2016-12-07T04:29:59.195Z,92.43
2016-12-07T04:30:59.858Z,92.66
2016-12-07T04:32:00.507Z,92.76
2016-12-07T04:33:01.160Z,92.29
2016-12-07T04:34:01.808Z,92.76
2016-12-07T04:35:02.436Z,92.43
2016-12-07T04:36:03.084Z,92.38
2016-12-07T04:37:03.722Z,92.71
2016-12-07T04:38:04.366Z,92.29
2016-12-07T04:39:05.053Z,92.33
2016-12-07T04:40:05.708Z,92.71
2016-12-07T04:41:06.332Z,92.52
2016-12-07T04:42:06.955Z,92.43
2016-12-07T04:43:07.595Z,92.43
2016-12-07T04:44:08.230Z,92.61
2016-12-07T04:45:08.902Z,92.61
2016-12-07T04:46:09.551Z,93.18
2016-12-07T04:47:10.231Z,92.43
2016-12-07T04:48:10.894Z,92.47
2016-12-07T04:49:11.530Z,93.23
2016-12-07T04:50:12.164Z,93.23
2016-12-07T04:51:12.820Z,92.85
2016-12-07T04:52:13.465Z,92.05
2016-12-07T04:53:14.104Z,92.38
2016-12-07T04:54:14.769Z,92.38
2016-12-07T04:55:15.437Z,92.33
2016-12-07T04:56:16.101Z,92.24
2016-12-07T04:57:16.783Z,92.14
2016-12-07T04:58:17.406Z,92.05
2016-12-07T04:59:18.035Z,91.62
2016-12-07T05:00:18.669Z,91.81
2016-12-07T05:01:19.336Z,91.91
2016-12-07T05:02:19.991Z,91.91
2016-12-07T05:03:20.632Z,91.62
2016-12-07T05:04:21.273Z,91.62
2016-12-07T05:05:21.919Z,91.81
2016-12-07T05:06:22.550Z,91.53
2016-12-07T05:07:23.201Z,91.43
2016-12-07T05:08:23.820Z,91.24
2016-12-07T05:09:24.437Z,91.43
2016-12-07T05:10:25.060Z,90.86
2016-12-07T05:11:25.681Z,90.96
2016-12-07T05:12:26.365Z,91.15
2016-12-07T05:13:27.005Z,90.48
2016-12-07T05:14:27.627Z,90.77
2016-12-07T05:15:28.269Z,90.86
2016-12-07T05:16:28.900Z,91.05
2016-12-07T05:17:29.532Z,90.3
2016-12-07T05:18:30.184Z,90.3
2016-12-07T05:19:30.835Z,90.48
2016-12-07T05:20:31.483Z,90.01
2016-12-07T05:21:32.099Z,89.44
2016-12-07T05:22:32.724Z,89.73
2016-12-07T05:23:33.370Z,89.54
2016-12-07T05:24:33.994Z,89.73
2016-12-07T05:25:34.649Z,89.16
2016-12-07T05:26:35.307Z,88.97
2016-12-07T05:27:35.950Z,88.87
2016-12-07T05:28:36.587Z,88.78
2016-12-07T05:29:37.246Z,89.06
2016-12-07T05:30:37.907Z,88.59
2016-12-07T05:31:38.506Z,89.06
2016-12-07T05:32:39.135Z,89.16
2016-12-07T05:33:39.795Z,88.4
2016-12-07T05:34:40.454Z,88.31
2016-12-07T05:35:41.079Z,88.87
2016-12-07T05:36:41.723Z,88.59
2016-12-07T05:37:42.348Z,88.78
2016-12-07T05:38:42.982Z,88.78
2016-12-07T05:39:43.625Z,88.4
2016-12-07T05:40:44.297Z,88.31
2016-12-07T05:41:44.916Z,88.31
2016-12-07T05:42:45.543Z,88.87
2016-12-07T05:43:46.172Z,88.49
2016-12-07T05:44:46.801Z,88.4
2016-12-07T05:45:47.433Z,88.59
2016-12-07T05:46:48.074Z,88.68
2016-12-07T05:47:48.738Z,88.87
2016-12-07T05:48:49.399Z,88.87
2016-12-07T05:49:50.041Z,89.16
2016-12-07T05:50:50.666Z,88.49
2016-12-07T05:51:51.320Z,88.4
2016-12-07T05:52:51.950Z,88.78
2016-12-07T05:53:52.599Z,88.59
2016-12-07T05:54:53.221Z,88.59
2016-12-07T05:55:53.865Z,88.31
2016-12-07T05:56:54.495Z,88.87
2016-12-07T05:57:55.159Z,88.59
2016-12-07T05:58:55.808Z,88.87
2016-12-07T05:59:56.452Z,88.59
2016-12-07T06:00:57.089Z,89.06
2016-12-07T06:01:57.774Z,88.68
2016-12-07T06:02:58.409Z,88.97
2016-12-07T06:03:59.067Z,88.97
2016-12-07T06:04:59.723Z,88.97
2016-12-07T06:06:00.418Z,87.84
2016-12-07T06:07:00.991Z,87.74
2016-12-07T06:08:01.657Z,88.02
2016-12-07T06:09:02.317Z,87.55
2016-12-07T06:10:02.951Z,87.74
2016-12-07T06:11:03.593Z,87.84
2016-12-07T06:12:04.239Z,87.84
2016-12-07T06:13:04.900Z,88.02
2016-12-07T06:14:05.526Z,87.84
2016-12-07T06:15:06.195Z,87.74
2016-12-07T06:16:06.850Z,87.55
2016-12-07T06:17:07.508Z,87.74
2016-12-07T06:18:08.180Z,87.93
2016-12-07T06:19:08.827Z,88.02
2016-12-07T06:20:09.520Z,87.84
2016-12-07T06:21:10.134Z,87.46
2016-12-07T06:22:10.792Z,87.84
2016-12-07T06:23:11.430Z,87.84
2016-12-07T06:24:12.125Z,87.55
2016-12-07T06:25:12.763Z,87.46
2016-12-07T06:26:13.397Z,87.36
2016-12-07T06:27:14.050Z,87.17
2016-12-07T06:28:14.699Z,87.17
2016-12-07T06:29:15.351Z,87.36
2016-12-07T06:30:16.001Z,87.36
2016-12-07T06:31:16.646Z,87.36
2016-12-07T06:32:17.385Z,87.36
2016-12-07T06:33:17.974Z,87.27
2016-12-07T06:34:18.638Z,87.08
2016-12-07T06:35:19.266Z,87.27
2016-12-07T06:36:19.918Z,86.98
2016-12-07T06:37:20.560Z,87.17
2016-12-07T06:38:21.212Z,86.98
2016-12-07T06:39:21.921Z,87.36
2016-12-07T06:40:22.588Z,87.55
2016-12-07T06:41:23.354Z,87.27
2016-12-07T06:42:24.014Z,87.27
2016-12-07T06:43:24.661Z,86.79
2016-12-07T06:44:25.381Z,86.79
2016-12-07T06:45:25.979Z,87.65
2016-12-07T06:46:26.642Z,87.27
2016-12-07T06:47:27.316Z,87.08
2016-12-07T06:48:28.081Z,86.79
2016-12-07T06:49:28.709Z,86.79
2016-12-07T06:50:29.407Z,86.7
2016-12-07T06:51:30.064Z,86.79
2016-12-07T06:52:30.757Z,86.7
2016-12-07T06:53:31.487Z,86.7
2016-12-07T06:54:32.169Z,86.51
2016-12-07T06:55:32.838Z,86.98
2016-12-07T06:56:33.587Z,87.46
2016-12-07T06:57:34.282Z,87.36
2016-12-07T06:58:34.983Z,86.98
2016-12-07T06:59:35.756Z,86.89
2016-12-07T07:00:36.342Z,86.98
2016-12-07T07:01:37.038Z,87.27
2016-12-07T07:02:37.752Z,86.89
2016-12-07T07:03:38.386Z,86.7
2016-12-07T07:04:39.020Z,86.98
2016-12-07T07:05:39.687Z,86.51
2016-12-07T07:06:40.418Z,86.22
2016-12-07T07:07:41.092Z,86.79
2016-12-07T07:08:41.857Z,86.89
2016-12-07T07:09:42.491Z,86.32
2016-12-07T07:10:43.162Z,85.94
2016-12-07T07:11:44.008Z,85.85
2016-12-07T07:12:44.666Z,85.85
2016-12-07T07:13:45.326Z,85.57
2016-12-07T07:14:45.986Z,86.7
2016-12-07T07:15:46.610Z,86.6
2016-12-07T07:16:47.280Z,86.51
2016-12-07T07:17:47.909Z,86.32
2016-12-07T07:18:48.726Z,86.41
2016-12-07T07:19:49.347Z,86.22
2016-12-07T07:20:50.065Z,86.41
2016-12-07T07:21:50.725Z,86.51
2016-12-07T07:22:51.409Z,85.94
2016-12-07T07:23:53.425Z,85.85
2016-12-07T07:24:54.084Z,86.13
2016-12-07T07:25:54.723Z,86.22
2016-12-07T07:26:56.040Z,86.04
2016-12-07T07:27:56.686Z,86.32
2016-12-07T07:28:57.367Z,85.75
2016-12-07T07:29:58.009Z,85.75
2016-12-07T07:30:58.633Z,85.85
2016-12-07T07:31:59.261Z,85.57
2016-12-07T07:33:00.916Z,85.66
2016-12-07T07:34:01.546Z,85.85
2016-12-07T07:35:02.190Z,86.32
2016-12-07T07:36:02.891Z,86.79
2016-12-07T07:37:03.545Z,87.74
2016-12-07T07:38:04.200Z,86.93
2016-12-07T07:39:04.870Z,86.08
2016-12-07T07:40:05.498Z,85.38
2016-12-07T07:41:06.164Z,84.42
2016-12-07T07:42:06.801Z,84.14
2016-12-07T07:43:07.487Z,84.52
2016-12-07T07:44:08.162Z,84.52
2016-12-07T07:45:08.807Z,85.19
2016-12-07T07:46:09.467Z,84.9
2016-12-07T07:47:10.112Z,84.81
2016-12-07T07:48:10.732Z,84.81
2016-12-07T07:49:11.366Z,84.81
2016-12-07T07:50:12.897Z,85.38
2016-12-07T07:51:13.564Z,84.9
2016-12-07T07:52:14.224Z,84.81
2016-12-07T07:53:14.872Z,85
2016-12-07T07:54:15.513Z,84.33
2016-12-07T07:55:16.149Z,85
2016-12-07T07:56:16.843Z,85
2016-12-07T07:57:17.475Z,85.19
2016-12-07T07:58:18.109Z,85.47
2016-12-07T07:59:18.731Z,85.57
2016-12-07T08:00:19.384Z,84.81
2016-12-07T08:01:20.022Z,85.47
2016-12-07T08:02:20.655Z,84.81
2016-12-07T08:03:21.306Z,84.81
2016-12-07T08:04:21.920Z,85.28
2016-12-07T08:05:22.530Z,85.38
2016-12-07T08:06:23.149Z,85.28
2016-12-07T08:07:23.760Z,84.71
2016-12-07T08:08:24.383Z,85.47
2016-12-07T08:09:24.992Z,85.38
2016-12-07T08:10:25.628Z,85.57
2016-12-07T08:11:26.238Z,85.38
2016-12-07T08:12:26.872Z,85.28
2016-12-07T08:13:27.507Z,85.09
2016-12-07T08:14:28.144Z,85
2016-12-07T08:15:28.772Z,84.71
2016-12-07T08:16:29.407Z,85.47
2016-12-07T08:17:30.078Z,85.75
2016-12-07T08:18:30.719Z,86.13
2016-12-07T08:19:31.378Z,85.38
2016-12-07T08:20:31.999Z,85.19
2016-12-07T08:21:32.685Z,85.28
2016-12-07T08:22:33.368Z,84.81
2016-12-07T08:23:34.051Z,85
2016-12-07T08:24:34.704Z,85
2016-12-07T08:25:35.374Z,85.09
2016-12-07T08:26:36.013Z,84.94
2016-12-07T08:27:36.736Z,85.19
2016-12-07T08:28:37.398Z,85.28
2016-12-07T08:29:37.986Z,85.09
2016-12-07T08:30:38.638Z,84.71
2016-12-07T08:31:39.904Z,84.81
2016-12-07T08:32:40.632Z,85.09
2016-12-07T08:33:41.316Z,84.81
2016-12-07T08:34:41.939Z,85.23
2016-12-07T08:35:42.601Z,84.66
2016-12-07T08:36:43.369Z,84.94
2016-12-07T08:37:44.043Z,84.52
2016-12-07T08:38:44.689Z,84.9
2016-12-07T08:39:45.379Z,84.71
2016-12-07T08:40:46.031Z,85.28
2016-12-07T08:41:46.730Z,84.61
2016-12-07T08:42:47.447Z,84.9
2016-12-07T08:43:48.081Z,85.57
2016-12-07T08:44:48.743Z,84.85
2016-12-07T08:45:49.424Z,84.28
2016-12-07T08:46:50.108Z,85.04
2016-12-07T08:47:50.756Z,84.94
2016-12-07T08:48:51.425Z,85.13
2016-12-07T08:49:52.089Z,85.13
2016-12-07T08:50:52.784Z,85.13
2016-12-07T08:51:53.439Z,85.04
2016-12-07T08:52:54.059Z,84.47
2016-12-07T08:53:54.699Z,84.56
2016-12-07T08:54:55.400Z,84.56
2016-12-07T08:55:56.070Z,85.04
2016-12-07T08:56:56.711Z,84.47
2016-12-07T08:57:57.416Z,84.66
2016-12-07T08:58:58.056Z,85.13
2016-12-07T08:59:58.707Z,85.23
2016-12-07T09:00:59.469Z,84.85
2016-12-07T09:02:00.112Z,84.38
2016-12-07T09:03:00.783Z,84.66
2016-12-07T09:04:01.436Z,85.13
2016-12-07T09:05:02.085Z,85.04
2016-12-07T09:06:03.276Z,85.23
2016-12-07T09:07:04.003Z,84.66
2016-12-07T09:08:04.645Z,85.04
2016-12-07T09:09:05.392Z,84.94
2016-12-07T09:10:05.991Z,85.51
2016-12-07T09:11:07.554Z,85.61
2016-12-07T09:12:08.281Z,85.23
2016-12-07T09:13:08.971Z,84.94
2016-12-07T09:14:09.608Z,84.85
2016-12-07T09:15:10.261Z,85.04
2016-12-07T09:16:10.990Z,85.23
2016-12-07T09:17:11.584Z,85.32
2016-12-07T09:18:12.470Z,85.42
2016-12-07T09:19:14.027Z,85.51
2016-12-07T09:20:14.754Z,85.13
2016-12-07T09:21:15.402Z,85.42
2016-12-07T09:22:16.091Z,85.8
2016-12-07T09:23:16.808Z,86.08
2016-12-07T09:24:17.465Z,85.99
2016-12-07T09:25:18.106Z,86.46
2016-12-07T09:26:18.787Z,86.55
2016-12-07T09:27:19.568Z,86.27
2016-12-07T09:28:20.243Z,85.89
2016-12-07T09:29:20.884Z,86.36
2016-12-07T09:30:21.513Z,86.27
2016-12-07T09:31:22.150Z,87.59
2016-12-07T09:32:22.788Z,87.4
2016-12-07T09:33:23.426Z,86.83
2016-12-07T09:34:24.070Z,86.93
2016-12-07T09:35:24.686Z,87.4
2016-12-07T09:36:25.304Z,87.4
2016-12-07T09:37:25.952Z,87.5
2016-12-07T09:38:26.586Z,87.73
2016-12-07T09:39:27.227Z,87.98
2016-12-07T09:40:27.852Z,88.3
2016-12-07T09:41:28.475Z,88.49
2016-12-07T09:42:29.112Z,88.78
2016-12-07T09:43:29.751Z,88.87
2016-12-07T09:44:30.372Z,88.96
2016-12-07T09:45:31.047Z,88.4
2016-12-07T09:46:31.682Z,88.68
2016-12-07T09:47:32.299Z,88.68
2016-12-07T09:48:32.924Z,88.96
2016-12-07T09:49:33.730Z,88.3
2016-12-07T09:50:34.366Z,88.78
2016-12-07T09:51:35.037Z,88.96
2016-12-07T09:52:35.711Z,88.3
2016-12-07T09:53:36.345Z,89.06
2016-12-07T09:54:37.018Z,88.68
2016-12-07T09:55:37.676Z,88.87
2016-12-07T09:56:38.356Z,88.78
2016-12-07T09:57:39.022Z,88.4
2016-12-07T09:58:39.653Z,88.96
2016-12-07T09:59:40.336Z,88.78
2016-12-07T10:00:40.994Z,88.49
2016-12-07T10:01:41.651Z,88.78
2016-12-07T10:02:42.275Z,89.44
2016-12-07T10:03:42.896Z,89.63
2016-12-07T10:04:43.517Z,89.53
2016-12-07T10:05:44.140Z,89.82
2016-12-07T10:06:44.764Z,89.53
2016-12-07T10:07:45.388Z,89.63
2016-12-07T10:08:46.063Z,89.63
2016-12-07T10:09:46.684Z,89.53
2016-12-07T10:10:47.358Z,90.01
2016-12-07T10:11:48.032Z,90.29
2016-12-07T10:12:48.705Z,90.39
2016-12-07T10:13:49.374Z,91.05
2016-12-07T10:14:49.997Z,90.95
2016-12-07T10:15:50.673Z,90.29
2016-12-07T10:16:51.306Z,90.39
2016-12-07T10:17:52.053Z,90.29
2016-12-07T10:18:52.711Z,90.39
2016-12-07T10:19:53.349Z,91.33
2016-12-07T10:20:53.970Z,91.05
2016-12-07T10:21:54.599Z,91.43
2016-12-07T10:22:55.227Z,90.95
2016-12-07T10:23:55.896Z,91.14
2016-12-07T10:24:56.501Z,90.77
2016-12-07T10:25:57.142Z,90.67
2016-12-07T10:26:57.923Z,90.29
2016-12-07T10:27:58.623Z,90.2
2016-12-07T10:28:59.340Z,90.29
2016-12-07T10:29:59.983Z,91.05
2016-12-07T10:31:00.661Z,90.67
2016-12-07T10:32:01.326Z,90.48
2016-12-07T10:33:02.030Z,90.29
2016-12-07T10:34:02.676Z,90.1
2016-12-07T10:35:03.364Z,90.39
2016-12-07T10:36:04.046Z,89.82
2016-12-07T10:37:04.785Z,90.2
2016-12-07T10:38:05.471Z,90.48
2016-12-07T10:39:06.260Z,90.01
2016-12-07T10:40:06.937Z,90.58
2016-12-07T10:41:07.617Z,91.14
2016-12-07T10:42:08.273Z,90.43
2016-12-07T10:43:08.932Z,90.48
2016-12-07T10:44:09.590Z,89.53
2016-12-07T10:45:10.337Z,89.44
2016-12-07T10:46:10.996Z,89.86
2016-12-07T10:47:11.710Z,90.01
2016-12-07T10:48:12.370Z,89.96
2016-12-07T10:49:13.066Z,89.44
2016-12-07T10:50:13.693Z,89.67
2016-12-07T10:51:14.348Z,88.78
2016-12-07T10:52:14.971Z,89.34
2016-12-07T10:53:15.589Z,89.72
2016-12-07T10:54:16.239Z,90.1
2016-12-07T10:55:16.880Z,91.14
2016-12-07T10:56:17.533Z,90.43
2016-12-07T10:57:18.178Z,90.01
2016-12-07T10:58:18.830Z,89.67
2016-12-07T10:59:19.508Z,89.86
2016-12-07T11:00:20.135Z,89.39
2016-12-07T11:01:20.799Z,89.86
2016-12-07T11:02:21.450Z,89.48
2016-12-07T11:03:22.119Z,89.96
2016-12-07T11:04:22.744Z,89.48
2016-12-07T11:05:23.524Z,89.77
2016-12-07T11:06:24.210Z,90.05
2016-12-07T11:07:24.882Z,89.58
2016-12-07T11:08:25.558Z,89.86
2016-12-07T11:09:26.199Z,89.77
2016-12-07T11:10:26.862Z,89.11
2016-12-07T11:11:27.509Z,88.82
2016-12-07T11:12:28.159Z,89.11
2016-12-07T11:13:28.796Z,89.58
2016-12-07T11:14:29.470Z,89.39
2016-12-07T11:15:30.128Z,89.39
2016-12-07T11:16:30.750Z,89.39
2016-12-07T11:17:31.368Z,88.92
2016-12-07T11:18:31.989Z,89.39
2016-12-07T11:19:32.630Z,89.67
2016-12-07T11:20:33.274Z,88.92
2016-12-07T11:21:33.979Z,88.63
2016-12-07T11:22:34.638Z,89.2
2016-12-07T11:23:35.305Z,89.72
2016-12-07T11:24:35.957Z,89.91
2016-12-07T11:25:36.583Z,90
2016-12-07T11:26:37.224Z,89.15
2016-12-07T11:27:37.847Z,88.87
2016-12-07T11:28:38.470Z,89.15
2016-12-07T11:29:39.097Z,89.25
2016-12-07T11:30:39.736Z,89.06
2016-12-07T11:31:40.354Z,89.06
2016-12-07T11:32:40.986Z,89.34
2016-12-07T11:33:41.611Z,89.06
2016-12-07T11:34:42.251Z,89.62
2016-12-07T11:35:42.899Z,89.25
2016-12-07T11:36:43.524Z,89.15
2016-12-07T11:37:44.146Z,88.39
2016-12-07T11:38:44.805Z,89.43
2016-12-07T11:39:45.424Z,88.96
2016-12-07T11:40:46.068Z,88.87
2016-12-07T11:41:46.689Z,88.68
2016-12-07T11:42:47.361Z,88.96
2016-12-07T11:43:47.982Z,89.43
2016-12-07T11:44:48.621Z,88.96
2016-12-07T11:45:49.250Z,89.72
2016-12-07T11:46:49.952Z,89.43
2016-12-07T11:47:50.589Z,89.25
2016-12-07T11:48:51.216Z,89.53
2016-12-07T11:49:51.846Z,89.15
2016-12-07T11:50:52.473Z,88.77
2016-12-07T11:51:53.101Z,88.91
2016-12-07T11:52:53.724Z,89.15
2016-12-07T11:53:54.361Z,88.72
2016-12-07T11:54:54.973Z,88.81
2016-12-07T11:55:55.592Z,89
2016-12-07T11:56:56.305Z,88.53
2016-12-07T11:57:56.968Z,88.34
2016-12-07T11:58:57.634Z,88.43
2016-12-07T11:59:58.259Z,88.34
2016-12-07T12:00:58.893Z,88.06
2016-12-07T12:01:59.516Z,88.24
2016-12-07T12:03:00.191Z,88.06
2016-12-07T12:04:00.833Z,88.43
2016-12-07T12:05:01.461Z,87.87
2016-12-07T12:06:02.100Z,87.77
2016-12-07T12:07:02.730Z,87.96
2016-12-07T12:08:03.349Z,87.58
2016-12-07T12:09:03.995Z,87.96
2016-12-07T12:10:04.639Z,87.72
2016-12-07T12:11:05.307Z,87.15
2016-12-07T12:12:05.971Z,87.43
2016-12-07T12:13:06.601Z,86.96
2016-12-07T12:14:07.224Z,86.96
2016-12-07T12:15:07.848Z,87.05
2016-12-07T12:16:08.465Z,86.77
2016-12-07T12:17:09.089Z,86.96
2016-12-07T12:18:09.828Z,86.01
2016-12-07T12:19:10.490Z,86.01
2016-12-07T12:20:11.134Z,86.01
2016-12-07T12:21:11.779Z,86.49
2016-12-07T12:22:12.429Z,86.77
2016-12-07T12:23:13.057Z,86.39
2016-12-07T12:24:13.705Z,86.77
2016-12-07T12:25:14.361Z,87.05
2016-12-07T12:26:15.005Z,87.05
2016-12-07T12:27:15.652Z,87.24
2016-12-07T12:28:16.340Z,87.53
2016-12-07T12:29:16.962Z,87.43
2016-12-07T12:30:17.595Z,87.82
2016-12-07T12:31:18.239Z,87.82
2016-12-07T12:32:18.880Z,87.91
2016-12-07T12:33:19.541Z,88.01
2016-12-07T12:34:20.177Z,88.39
2016-12-07T12:35:20.804Z,88.48
2016-12-07T12:36:21.442Z,88.76
2016-12-07T12:37:22.114Z,88.86
2016-12-07T12:38:22.757Z,89.33
2016-12-07T12:39:23.388Z,89.14
2016-12-07T12:40:24.016Z,89.62
2016-12-07T12:41:24.666Z,88.95
2016-12-07T12:42:25.323Z,89.53
2016-12-07T12:43:26.055Z,88.76
2016-12-07T12:44:26.724Z,88.86
2016-12-07T12:45:27.401Z,88.95
2016-12-07T12:46:28.033Z,88.86
2016-12-07T12:47:28.700Z,88.95
2016-12-07T12:48:29.351Z,89.14
2016-12-07T12:49:29.986Z,88.57
2016-12-07T12:50:30.635Z,88.95
2016-12-07T12:51:31.314Z,89.05
2016-12-07T12:52:32.109Z,88.86
2016-12-07T12:53:32.734Z,88.57
2016-12-07T12:54:33.385Z,88.57
2016-12-07T12:55:34.059Z,88.67
2016-12-07T12:56:34.758Z,88.29
2016-12-07T12:57:35.430Z,88.57
2016-12-07T12:58:36.071Z,88.29
2016-12-07T12:59:36.731Z,87.72
2016-12-07T13:00:37.429Z,87.72
2016-12-07T13:01:38.060Z,87.05
2016-12-07T13:02:38.692Z,87.34
2016-12-07T13:03:39.346Z,87.62
2016-12-07T13:04:40.007Z,87.82